Hlavní strana
METAR-TAF:

METAR-TAF

Letiště :

Mezinárodní letiště Indiry Gándhíové

Nové Dillí, Indie

zeměpisná šířka: 28-34N, zeměpisná délka: 077-07E, výška: 220 m

Aktuální stav počasí

Zpráva byla vytvořena před 47 minutami, v 04:30 UTC
Severozápadní vítr 6 kt
Teplota 36°C
Vlhkost vzduchu 39%
Tlak 1003 hPa
Viditelnost: 2500 m
zákal

METAR: VIDP 200430Z 31006KT 2500 HZ NSC 36/20 Q1003 NOSIG

Čas: 10:47 (05:17 UTC)

Předpověď počasí

Zpráva byla vytvořena před 3 hodinami a 17 minutami, v 02:00 UTC
Předpověď platná od 20 v 03 UTC do 20 v 12 UTC
Západojihozápadní vítr 6 kt
Viditelnost: 3000 m
Skoro jasno ve výšce 4000 ft
zákal
Změna
od 20 v 05 UTC do 20 v 07 UTC
Západoseverozápadní vítr 8 kt
Viditelnost: 4000 m
zákal

TAF: VIDP 200200Z 2003/2012 25006KT 3000 HZ FEW040 BECMG 2005/2007 29008KT 4000 HZ

Stav a předpovědi počasí z více než 4 000 letišť (zprávy METAR a TAF).

Červené a žluté tečky na mapě představují dostupné meteorologické stanice.

Když kurzor umístíte na tečku, zobrazí se název stanice.

Pak kliknutím zobrazíte stav a předpověď počasí.

Chcete-li změnit mapu, kliknutím na zelené tlačítko se znaménkem +mapu přiblížíte, kliknutím na zelené tlačítko se znaménkem – mapu oddálíte a kliknutím na zelené šipky přejdete na sousední mapy.


METAR-TAF: